createdAt,value
2019-03-11T00:00:03.954Z,14.50
2019-03-11T00:00:40.292Z,12.75
2019-03-11T00:01:15.493Z,16.85
2019-03-11T00:01:48.948Z,13.25
2019-03-11T00:02:22.427Z,14.25
2019-03-11T00:02:55.899Z,13.72
2019-03-11T00:03:29.385Z,20.40
2019-03-11T00:04:02.854Z,13.50
2019-03-11T00:04:36.321Z,17.87
2019-03-11T00:05:09.994Z,16.80
2019-03-11T00:05:43.452Z,15.08
2019-03-11T00:06:16.835Z,15.85
2019-03-11T00:06:50.296Z,14.40
2019-03-11T00:07:23.769Z,14.07
2019-03-11T00:07:57.442Z,20.43
2019-03-11T00:08:30.838Z,17.48
2019-03-11T00:09:04.904Z,16.45
2019-03-11T00:09:38.323Z,13.58
2019-03-11T00:10:11.804Z,11.88
2019-03-11T00:10:45.306Z,11.68
2019-03-11T00:11:18.773Z,14.60
2019-03-11T00:11:52.216Z,19.48
2019-03-11T00:12:25.715Z,11.97
2019-03-11T00:12:59.189Z,18.73
2019-03-11T00:13:32.687Z,13.98
2019-03-11T00:14:06.675Z,12.93
2019-03-11T00:14:40.153Z,15.00
2019-03-11T00:15:13.614Z,20.68
2019-03-11T00:15:47.153Z,16.52
2019-03-11T00:16:20.607Z,14.28
2019-03-11T00:16:54.081Z,17.90
2019-03-11T00:17:27.491Z,17.77
2019-03-11T00:18:00.996Z,15.32
2019-03-11T00:18:34.466Z,16.48
2019-03-11T00:19:07.932Z,17.82
2019-03-11T00:19:41.397Z,16.45
2019-03-11T00:20:14.860Z,15.78
2019-03-11T00:20:48.325Z,15.55
2019-03-11T00:21:21.802Z,21.60
2019-03-11T00:21:55.226Z,16.48
2019-03-11T00:22:28.695Z,24.47
2019-03-11T00:23:02.165Z,16.12
2019-03-11T00:23:35.556Z,15.50
2019-03-11T00:24:09.036Z,16.32
2019-03-11T00:24:42.449Z,15.05
2019-03-11T00:25:15.908Z,16.15
2019-03-11T00:25:49.401Z,16.30
2019-03-11T00:26:22.802Z,13.75
2019-03-11T00:26:56.289Z,16.27
2019-03-11T00:27:29.690Z,25.08
2019-03-11T00:28:03.165Z,15.35
2019-03-11T00:28:36.553Z,19.62
2019-03-11T00:29:10.433Z,22.58
2019-03-11T00:29:43.917Z,22.32
2019-03-11T00:30:17.377Z,16.80
2019-03-11T00:30:50.864Z,21.60
2019-03-11T00:31:24.338Z,20.15
2019-03-11T00:31:57.841Z,21.00
2019-03-11T00:32:31.330Z,12.80
2019-03-11T00:33:04.793Z,15.40
2019-03-11T00:33:38.267Z,17.85
2019-03-11T00:34:12.770Z,21.85
2019-03-11T00:34:46.299Z,18.67
2019-03-11T00:35:19.761Z,19.02
2019-03-11T00:35:53.233Z,18.12
2019-03-11T00:36:26.719Z,29.15
2019-03-11T00:37:00.114Z,17.57
2019-03-11T00:37:33.516Z,16.65
2019-03-11T00:38:06.994Z,15.38
2019-03-11T00:38:40.450Z,15.38
2019-03-11T00:39:13.857Z,19.10
2019-03-11T00:39:47.332Z,18.95
2019-03-11T00:40:20.790Z,15.72
2019-03-11T00:40:54.250Z,15.60
2019-03-11T00:41:27.713Z,18.87
2019-03-11T00:42:01.115Z,16.82
2019-03-11T00:42:34.586Z,19.37
2019-03-11T00:43:08.082Z,22.95
2019-03-11T00:43:41.537Z,18.17
2019-03-11T00:44:15.030Z,14.55
2019-03-11T00:44:48.418Z,16.05
2019-03-11T00:45:24.240Z,14.20
2019-03-11T00:45:57.020Z,15.28
2019-03-11T00:46:30.418Z,22.62
2019-03-11T00:47:03.876Z,16.37
2019-03-11T00:47:37.347Z,21.07
2019-03-11T00:48:10.821Z,20.23
2019-03-11T00:48:44.284Z,21.33
2019-03-11T00:49:17.776Z,17.98
2019-03-11T00:49:51.232Z,17.60
2019-03-11T00:50:24.705Z,20.43
2019-03-11T00:50:58.250Z,17.77
2019-03-11T00:51:31.714Z,17.52
2019-03-11T00:52:05.210Z,20.45
2019-03-11T00:52:38.781Z,19.77
2019-03-11T00:53:12.511Z,14.80
2019-03-11T00:53:46.000Z,19.70
2019-03-11T00:54:20.119Z,20.57
2019-03-11T00:54:53.584Z,18.95
2019-03-11T00:55:27.058Z,17.10
2019-03-11T00:56:00.526Z,15.48
2019-03-11T00:56:33.985Z,19.65
2019-03-11T00:57:07.396Z,16.52
2019-03-11T00:57:40.902Z,21.90
2019-03-11T00:58:14.368Z,15.80
2019-03-11T00:58:47.757Z,17.25
2019-03-11T00:59:21.248Z,25.30
2019-03-11T00:59:54.708Z,19.60
2019-03-11T01:00:37.383Z,16.70
2019-03-11T01:01:10.750Z,20.25
2019-03-11T01:01:44.213Z,19.10
2019-03-11T01:02:17.698Z,20.62
2019-03-11T01:02:51.278Z,16.70
2019-03-11T01:03:24.985Z,23.60
2019-03-11T01:03:58.463Z,23.07
2019-03-11T01:04:31.953Z,18.12
2019-03-11T01:05:05.429Z,20.90
2019-03-11T01:05:38.833Z,17.87
2019-03-11T01:06:12.292Z,20.35
2019-03-11T01:06:45.769Z,19.45
2019-03-11T01:07:19.224Z,22.07
2019-03-11T01:07:52.696Z,17.07
2019-03-11T01:08:26.179Z,21.42
2019-03-11T01:08:59.641Z,21.23
2019-03-11T01:09:33.773Z,24.05
2019-03-11T01:10:07.741Z,17.73
2019-03-11T01:10:41.209Z,16.23
2019-03-11T01:11:14.667Z,18.52
2019-03-11T01:11:48.129Z,17.87
2019-03-11T01:12:21.590Z,18.50
2019-03-11T01:12:55.065Z,22.02
2019-03-11T01:13:28.464Z,19.52
2019-03-11T01:14:01.937Z,16.65
2019-03-11T01:14:36.035Z,27.02
2019-03-11T01:15:09.655Z,21.15
2019-03-11T01:15:43.119Z,19.92
2019-03-11T01:16:16.578Z,19.17
2019-03-11T01:16:49.975Z,18.90
2019-03-11T01:17:23.441Z,17.62
2019-03-11T01:17:56.839Z,20.72
2019-03-11T01:18:30.298Z,17.98
2019-03-11T01:19:03.681Z,17.25
2019-03-11T01:19:37.164Z,20.52
2019-03-11T01:20:10.626Z,15.75
2019-03-11T01:20:44.100Z,22.93
2019-03-11T01:21:17.484Z,15.55
2019-03-11T01:21:50.953Z,18.07
2019-03-11T01:22:24.422Z,17.30
2019-03-11T01:22:57.893Z,19.23
2019-03-11T01:23:31.284Z,16.20
2019-03-11T01:24:04.741Z,18.77
2019-03-11T01:24:38.906Z,20.60
2019-03-11T01:25:12.558Z,16.80
2019-03-11T01:25:46.021Z,15.83
2019-03-11T01:26:19.482Z,18.35
2019-03-11T01:26:52.935Z,12.78
2019-03-11T01:27:26.396Z,16.52
2019-03-11T01:27:59.853Z,18.37
2019-03-11T01:28:33.322Z,18.82
2019-03-11T01:29:06.799Z,16.67
2019-03-11T01:29:40.992Z,17.10
2019-03-11T01:30:15.293Z,17.70
2019-03-11T01:30:48.743Z,17.85
2019-03-11T01:31:22.201Z,14.73
2019-03-11T01:31:55.760Z,13.62
2019-03-11T01:32:29.224Z,12.78
2019-03-11T01:33:02.616Z,13.45
2019-03-11T01:33:36.121Z,14.95
2019-03-11T01:34:09.578Z,12.45
2019-03-11T01:34:43.061Z,18.40
2019-03-11T01:35:16.517Z,13.03
2019-03-11T01:35:49.976Z,12.73
2019-03-11T01:36:23.457Z,12.60
2019-03-11T01:36:56.840Z,15.95
2019-03-11T01:37:30.298Z,12.90
2019-03-11T01:38:03.778Z,12.50
2019-03-11T01:38:37.152Z,12.15
2019-03-11T01:39:10.616Z,10.93
2019-03-11T01:39:44.088Z,13.35
2019-03-11T01:40:17.541Z,10.38
2019-03-11T01:40:50.996Z,14.40
2019-03-11T01:41:24.468Z,11.10
2019-03-11T01:41:57.916Z,11.30
2019-03-11T01:42:31.403Z,11.03
2019-03-11T01:43:04.860Z,12.35
2019-03-11T01:43:38.253Z,11.83
2019-03-11T01:44:11.710Z,11.57
2019-03-11T01:44:45.491Z,12.03
2019-03-11T01:45:18.951Z,9.58
2019-03-11T01:45:52.400Z,10.85
2019-03-11T01:46:25.806Z,9.93
2019-03-11T01:46:59.273Z,9.18
2019-03-11T01:47:32.682Z,8.50
2019-03-11T01:48:06.145Z,12.13
2019-03-11T01:48:39.617Z,10.25
2019-03-11T01:49:13.280Z,9.75
2019-03-11T01:49:46.803Z,12.00
2019-03-11T01:50:20.420Z,9.13
2019-03-11T01:50:53.898Z,10.38
2019-03-11T01:51:27.275Z,10.90
2019-03-11T01:52:00.759Z,10.72
2019-03-11T01:52:34.298Z,9.35
2019-03-11T01:53:07.772Z,12.20
2019-03-11T01:53:41.161Z,9.85
2019-03-11T01:54:14.618Z,9.55
2019-03-11T01:54:48.082Z,9.40
2019-03-11T01:55:21.566Z,12.23
2019-03-11T01:55:55.078Z,8.68
2019-03-11T01:56:28.441Z,10.30
2019-03-11T01:57:01.900Z,9.73
2019-03-11T01:57:35.360Z,11.00
2019-03-11T01:58:08.808Z,11.53
2019-03-11T01:58:42.277Z,12.35
2019-03-11T01:59:15.816Z,9.15
2019-03-11T01:59:49.241Z,9.50
2019-03-11T02:00:22.704Z,10.65
2019-03-11T02:00:56.193Z,10.35
2019-03-11T02:01:29.655Z,9.98
2019-03-11T02:02:03.125Z,9.38
2019-03-11T02:02:36.580Z,10.43
2019-03-11T02:03:09.962Z,9.60
2019-03-11T02:03:43.340Z,9.05
2019-03-11T02:04:16.791Z,10.65
2019-03-11T02:04:50.235Z,9.03
2019-03-11T02:05:23.774Z,10.13
2019-03-11T02:05:57.161Z,9.90
2019-03-11T02:06:30.622Z,9.85
2019-03-11T02:07:04.086Z,11.00
2019-03-11T02:07:37.551Z,9.75
2019-03-11T02:08:11.025Z,10.32
2019-03-11T02:08:44.394Z,11.03
2019-03-11T02:09:17.945Z,8.13
2019-03-11T02:09:51.510Z,11.45
2019-03-11T02:10:25.150Z,10.18
2019-03-11T02:10:58.625Z,9.98
2019-03-11T02:11:32.082Z,11.30
2019-03-11T02:12:05.558Z,14.25
2019-03-11T02:12:39.011Z,13.38
2019-03-11T02:13:12.469Z,10.03
2019-03-11T02:13:45.929Z,10.30
2019-03-11T02:14:19.402Z,11.70
2019-03-11T02:14:52.859Z,15.13
2019-03-11T02:15:26.384Z,8.78
2019-03-11T02:15:59.847Z,11.22
2019-03-11T02:16:33.296Z,9.95
2019-03-11T02:17:06.765Z,10.68
2019-03-11T02:17:40.220Z,8.53
2019-03-11T02:18:13.762Z,10.00
2019-03-11T02:18:47.211Z,8.35
2019-03-11T02:19:20.681Z,10.00
2019-03-11T02:19:54.560Z,10.60
2019-03-11T02:20:28.036Z,10.20
2019-03-11T02:21:01.504Z,10.35
2019-03-11T02:21:34.890Z,10.48
2019-03-11T02:22:08.349Z,9.95
2019-03-11T02:22:41.808Z,8.88
2019-03-11T02:23:15.446Z,11.00
2019-03-11T02:23:48.910Z,9.30
2019-03-11T02:24:22.297Z,11.50
2019-03-11T02:24:55.771Z,11.75
2019-03-11T02:25:29.255Z,8.83
2019-03-11T02:26:02.708Z,10.72
2019-03-11T02:26:36.090Z,10.05
2019-03-11T02:27:09.474Z,8.50
2019-03-11T02:27:42.928Z,10.80
2019-03-11T02:28:16.433Z,8.30
2019-03-11T02:28:49.884Z,10.30
2019-03-11T02:29:23.273Z,10.93
2019-03-11T02:29:56.740Z,9.80
2019-03-11T02:30:31.179Z,9.38
2019-03-11T02:31:04.662Z,8.63
2019-03-11T02:31:38.105Z,8.90
2019-03-11T02:32:11.642Z,6.58
2019-03-11T02:32:45.186Z,8.28
2019-03-11T02:33:18.582Z,6.92
2019-03-11T02:33:51.965Z,8.35
2019-03-11T02:34:25.364Z,6.78
2019-03-11T02:34:58.761Z,9.70
2019-03-11T02:35:32.967Z,7.30
2019-03-11T02:36:06.683Z,9.35
2019-03-11T02:36:40.181Z,11.48
2019-03-11T02:37:13.746Z,8.83
2019-03-11T02:37:47.291Z,8.70
2019-03-11T02:38:20.775Z,8.33
2019-03-11T02:38:54.237Z,7.60
2019-03-11T02:39:27.708Z,5.95
2019-03-11T02:40:01.174Z,7.20
2019-03-11T02:40:34.634Z,7.37
2019-03-11T02:41:08.133Z,7.15
2019-03-11T02:41:41.539Z,6.00
2019-03-11T02:42:15.013Z,6.28
2019-03-11T02:42:48.485Z,6.42
2019-03-11T02:43:21.867Z,7.15
2019-03-11T02:43:55.276Z,6.70
2019-03-11T02:44:28.680Z,6.40
2019-03-11T02:45:02.221Z,6.22
2019-03-11T02:45:35.698Z,9.50
2019-03-11T02:46:09.193Z,7.12
2019-03-11T02:46:42.758Z,7.30
2019-03-11T02:47:16.313Z,5.97
2019-03-11T02:47:49.758Z,6.65
2019-03-11T02:48:23.141Z,7.25
2019-03-11T02:48:56.594Z,6.25
2019-03-11T02:49:29.970Z,6.37
2019-03-11T02:50:03.451Z,6.22
2019-03-11T02:50:36.931Z,5.95
2019-03-11T02:51:10.333Z,5.22
2019-03-11T02:51:43.786Z,5.33
2019-03-11T02:52:17.242Z,6.47
2019-03-11T02:52:50.695Z,6.03
2019-03-11T02:53:24.094Z,7.45
2019-03-11T02:53:57.553Z,5.62
2019-03-11T02:54:30.943Z,7.12
2019-03-11T02:55:04.577Z,6.65
2019-03-11T02:55:38.039Z,5.12
2019-03-11T02:56:11.845Z,5.45
2019-03-11T02:56:45.221Z,5.08
2019-03-11T02:57:18.654Z,4.95
2019-03-11T02:57:52.158Z,5.83
2019-03-11T02:58:25.547Z,5.53
2019-03-11T02:58:59.002Z,5.15
2019-03-11T02:59:33.618Z,8.48
2019-03-11T03:00:08.147Z,5.37
2019-03-11T03:00:41.631Z,7.62
2019-03-11T03:01:40.334Z,12.70
2019-03-11T03:02:23.298Z,6.30
2019-03-11T03:03:06.070Z,4.90
2019-03-11T03:03:41.687Z,5.78
2019-03-11T03:04:19.442Z,6.72
2019-03-11T03:05:02.857Z,6.85
2019-03-11T03:05:45.178Z,6.95
2019-03-11T03:06:18.579Z,5.67
2019-03-11T03:06:52.030Z,5.05
2019-03-11T03:07:25.494Z,5.72
2019-03-11T03:07:58.956Z,9.05
2019-03-11T03:08:32.409Z,4.67
2019-03-11T03:09:09.419Z,5.22
2019-03-11T03:09:42.919Z,4.65
2019-03-11T03:10:16.589Z,5.17
2019-03-11T03:10:50.079Z,5.35
2019-03-11T03:11:23.594Z,5.35
2019-03-11T03:11:57.076Z,4.35
2019-03-11T03:12:30.525Z,4.67
2019-03-11T03:13:04.097Z,5.08
2019-03-11T03:13:37.568Z,5.92
2019-03-11T03:14:11.082Z,5.70
2019-03-11T03:14:44.477Z,4.90
2019-03-11T03:15:18.025Z,4.92
2019-03-11T03:15:51.559Z,4.85
2019-03-11T03:16:25.901Z,5.53
2019-03-11T03:16:59.381Z,4.97
2019-03-11T03:17:32.933Z,5.10
2019-03-11T03:18:06.399Z,6.08
2019-03-11T03:18:39.853Z,4.87
2019-03-11T03:19:13.321Z,5.20
2019-03-11T03:19:46.778Z,6.60
2019-03-11T03:20:20.258Z,5.08
2019-03-11T03:20:53.759Z,6.55
2019-03-11T03:21:27.225Z,4.87
2019-03-11T03:22:00.712Z,6.22
2019-03-11T03:22:34.211Z,5.78
2019-03-11T03:23:07.667Z,6.47
2019-03-11T03:23:41.129Z,5.75
2019-03-11T03:24:14.597Z,5.87
2019-03-11T03:24:48.081Z,7.45
2019-03-11T03:25:32.810Z,6.20
2019-03-11T03:25:56.859Z,6.40
2019-03-11T03:26:30.645Z,5.40
2019-03-11T03:27:04.436Z,6.80
2019-03-11T03:27:37.951Z,5.87
2019-03-11T03:28:11.466Z,5.75
2019-03-11T03:28:44.905Z,5.92
2019-03-11T03:29:18.385Z,5.80
2019-03-11T03:29:52.210Z,5.83
2019-03-11T03:30:25.670Z,7.62
2019-03-11T03:30:59.105Z,6.25
2019-03-11T03:31:33.268Z,6.67
2019-03-11T03:32:06.974Z,6.47
2019-03-11T03:32:40.561Z,6.37
2019-03-11T03:33:14.095Z,8.03
2019-03-11T03:33:47.566Z,7.70
2019-03-11T03:34:21.021Z,8.90
2019-03-11T03:34:54.402Z,7.95
2019-03-11T03:35:27.869Z,7.67
2019-03-11T03:36:01.249Z,8.05
2019-03-11T03:36:34.979Z,9.38
2019-03-11T03:37:08.381Z,8.58
2019-03-11T03:37:41.835Z,7.08
2019-03-11T03:38:28.955Z,6.85
2019-03-11T03:38:50.425Z,9.95
2019-03-11T03:39:23.890Z,8.05
2019-03-11T03:39:57.273Z,6.70
2019-03-11T03:40:30.737Z,7.30
2019-03-11T03:41:04.216Z,8.68
2019-03-11T03:41:37.965Z,7.00
2019-03-11T03:42:13.372Z,7.70
2019-03-11T03:42:46.498Z,7.83
2019-03-11T03:43:20.180Z,8.88
2019-03-11T03:43:53.642Z,8.18
2019-03-11T03:44:27.117Z,10.98
2019-03-11T03:45:18.305Z,10.78
2019-03-11T03:45:51.718Z,9.53
2019-03-11T03:46:25.176Z,9.80
2019-03-11T03:46:58.655Z,9.38
2019-03-11T03:47:32.119Z,9.08
2019-03-11T03:48:05.618Z,8.10
2019-03-11T03:48:39.226Z,12.45
2019-03-11T03:49:12.807Z,8.50
2019-03-11T03:49:46.275Z,10.45
2019-03-11T03:50:19.833Z,11.15
2019-03-11T03:50:53.296Z,8.58
2019-03-11T03:51:26.818Z,9.30
2019-03-11T03:52:00.290Z,7.85
2019-03-11T03:52:33.673Z,9.50
2019-03-11T03:53:07.535Z,12.43
2019-03-11T03:53:40.994Z,8.73
2019-03-11T03:54:14.389Z,15.23
2019-03-11T03:54:47.843Z,9.80
2019-03-11T03:55:21.370Z,11.88
2019-03-11T03:55:54.824Z,12.05
2019-03-11T03:56:28.310Z,11.15
2019-03-11T03:57:02.190Z,7.90
2019-03-11T03:57:35.638Z,11.33
2019-03-11T03:58:09.090Z,9.05
2019-03-11T03:58:42.478Z,10.63
2019-03-11T03:59:15.857Z,12.07
2019-03-11T03:59:49.309Z,11.73
2019-03-11T04:00:22.791Z,11.80
2019-03-11T04:00:56.273Z,11.83
2019-03-11T04:01:29.729Z,9.48
2019-03-11T04:02:03.196Z,12.15
2019-03-11T04:02:36.650Z,11.75
2019-03-11T04:03:10.128Z,14.20
2019-03-11T04:03:43.635Z,12.25
2019-03-11T04:04:17.089Z,8.38
2019-03-11T04:04:50.548Z,10.25
2019-03-11T04:05:24.010Z,9.95
2019-03-11T04:05:57.500Z,11.85
2019-03-11T04:06:30.959Z,12.07
2019-03-11T04:07:05.468Z,11.83
2019-03-11T04:07:38.905Z,13.93
2019-03-11T04:08:12.375Z,10.23
2019-03-11T04:08:45.755Z,11.90
2019-03-11T04:09:19.155Z,10.78
2019-03-11T04:09:52.605Z,11.18
2019-03-11T04:10:26.071Z,10.00
2019-03-11T04:10:59.521Z,10.50
2019-03-11T04:11:32.991Z,11.22
2019-03-11T04:12:07.140Z,12.07
2019-03-11T04:12:40.584Z,8.48
2019-03-11T04:13:14.061Z,11.75
2019-03-11T04:13:47.516Z,10.48
2019-03-11T04:14:20.977Z,10.53
2019-03-11T04:14:54.442Z,10.08
2019-03-11T04:15:27.918Z,18.52
2019-03-11T04:16:01.528Z,9.55
2019-03-11T04:16:34.985Z,16.82
2019-03-11T04:17:08.458Z,11.90
2019-03-11T04:17:41.922Z,15.15
2019-03-11T04:18:15.389Z,10.53
2019-03-11T04:18:57.704Z,14.18
2019-03-11T04:19:31.163Z,12.30
2019-03-11T04:20:05.463Z,11.63
2019-03-11T04:20:38.918Z,7.30
2019-03-11T04:21:12.368Z,9.55
2019-03-11T04:21:46.046Z,12.00
2019-03-11T04:22:19.541Z,10.40
2019-03-11T04:22:52.992Z,8.60
2019-03-11T04:23:26.453Z,10.82
2019-03-11T04:23:59.925Z,8.20
2019-03-11T04:24:33.387Z,10.40
2019-03-11T04:25:07.142Z,10.05
2019-03-11T04:25:40.606Z,15.05
2019-03-11T04:26:14.064Z,8.55
2019-03-11T04:26:52.030Z,11.33
2019-03-11T04:27:25.557Z,8.20
2019-03-11T04:27:59.219Z,7.42
2019-03-11T04:28:32.669Z,9.40
2019-03-11T04:29:06.123Z,8.70
2019-03-11T04:29:39.569Z,9.48
2019-03-11T04:30:14.245Z,10.53
2019-03-11T04:30:47.696Z,11.93
2019-03-11T04:31:21.155Z,7.62
2019-03-11T04:31:54.617Z,10.35
2019-03-11T04:32:28.341Z,10.68
2019-03-11T04:33:01.832Z,14.03
2019-03-11T04:33:35.357Z,10.95
2019-03-11T04:34:09.001Z,10.38
2019-03-11T04:34:42.456Z,12.00
2019-03-11T04:35:15.849Z,12.13
2019-03-11T04:35:49.298Z,9.28
2019-03-11T04:36:22.765Z,13.40
2019-03-11T04:36:56.288Z,10.40
2019-03-11T04:37:29.699Z,10.43
2019-03-11T04:38:03.125Z,9.13
2019-03-11T04:38:36.572Z,12.65
2019-03-11T04:39:10.036Z,9.55
2019-03-11T04:39:43.496Z,10.55
2019-03-11T04:40:17.027Z,11.22
2019-03-11T04:40:50.482Z,8.43
2019-03-11T04:41:23.937Z,9.85
2019-03-11T04:41:57.320Z,6.83
2019-03-11T04:42:30.814Z,10.13
2019-03-11T04:43:04.260Z,9.88
2019-03-11T04:43:37.736Z,10.38
2019-03-11T04:44:11.254Z,9.65
2019-03-11T04:44:44.707Z,8.70
2019-03-11T04:45:18.170Z,9.35
2019-03-11T04:45:51.622Z,9.03
2019-03-11T04:46:25.077Z,8.08
2019-03-11T04:46:58.536Z,17.27
2019-03-11T04:47:32.193Z,8.15
2019-03-11T04:48:05.656Z,7.30
2019-03-11T04:48:39.114Z,9.43
2019-03-11T04:49:12.566Z,10.20
2019-03-11T04:49:46.028Z,9.05
2019-03-11T04:50:19.511Z,6.80
2019-03-11T04:50:52.970Z,9.75
2019-03-11T04:51:26.442Z,6.70
2019-03-11T04:51:59.892Z,6.65
2019-03-11T04:52:33.414Z,14.55
2019-03-11T04:53:06.869Z,7.72
2019-03-11T04:53:40.329Z,7.30
2019-03-11T04:54:13.848Z,14.13
2019-03-11T04:54:47.408Z,8.85
2019-03-11T04:55:20.982Z,10.05
2019-03-11T04:55:54.499Z,7.42
2019-03-11T04:56:27.967Z,12.90
2019-03-11T04:57:01.424Z,8.98
2019-03-11T04:57:42.646Z,10.25
2019-03-11T04:58:16.101Z,8.35
2019-03-11T04:58:49.578Z,13.43
2019-03-11T04:59:23.045Z,9.25
2019-03-11T04:59:56.430Z,11.05
2019-03-11T05:00:29.971Z,11.08
2019-03-11T05:01:03.442Z,13.35
2019-03-11T05:01:36.893Z,10.23
2019-03-11T05:02:10.694Z,6.80
2019-03-11T05:02:44.184Z,8.35
2019-03-11T05:03:17.653Z,10.78
2019-03-11T05:03:51.034Z,6.53
2019-03-11T05:04:24.486Z,7.45
2019-03-11T05:04:57.946Z,6.42
2019-03-11T05:05:31.574Z,6.75
2019-03-11T05:06:05.104Z,10.65
2019-03-11T05:06:38.602Z,12.82
2019-03-11T05:07:11.990Z,8.40
2019-03-11T05:07:45.482Z,9.40
2019-03-11T05:08:18.952Z,9.68
2019-03-11T05:08:52.494Z,10.85
2019-03-11T05:09:25.886Z,7.33
2019-03-11T05:09:59.261Z,9.40
2019-03-11T05:10:32.734Z,12.65
2019-03-11T05:11:06.177Z,10.20
2019-03-11T05:11:39.633Z,11.15
2019-03-11T05:12:13.030Z,10.88
2019-03-11T05:12:47.148Z,7.97
2019-03-11T05:13:20.662Z,8.03
2019-03-11T05:13:54.121Z,6.47
2019-03-11T05:14:27.699Z,15.28
2019-03-11T05:15:01.075Z,7.87
2019-03-11T05:15:34.543Z,8.20
2019-03-11T05:16:08.012Z,8.50
2019-03-11T05:16:41.485Z,11.22
2019-03-11T05:17:14.952Z,10.30
2019-03-11T05:17:48.946Z,6.70
2019-03-11T05:18:22.706Z,11.05
2019-03-11T05:18:56.113Z,14.18
2019-03-11T05:19:29.882Z,14.25
2019-03-11T05:20:04.017Z,8.30
2019-03-11T05:20:37.469Z,7.60
2019-03-11T05:21:10.862Z,8.43
2019-03-11T05:21:44.308Z,9.48
2019-03-11T05:22:17.701Z,10.45
2019-03-11T05:22:51.171Z,9.48
2019-03-11T05:23:24.625Z,6.47
2019-03-11T05:23:58.083Z,12.43
2019-03-11T05:24:31.555Z,6.42
2019-03-11T05:25:05.410Z,6.85
2019-03-11T05:25:38.794Z,10.23
2019-03-11T05:26:12.421Z,10.82
2019-03-11T05:26:45.816Z,9.43
2019-03-11T05:27:19.319Z,10.28
2019-03-11T05:27:52.882Z,9.35
2019-03-11T05:28:26.270Z,10.15
2019-03-11T05:28:59.677Z,7.28
2019-03-11T05:29:33.052Z,9.50
2019-03-11T05:30:07.175Z,9.55
2019-03-11T05:30:40.625Z,9.38
2019-03-11T05:31:14.081Z,12.23
2019-03-11T05:31:47.549Z,11.90
2019-03-11T05:32:21.005Z,6.95
2019-03-11T05:32:55.048Z,12.10
2019-03-11T05:33:28.425Z,9.60
2019-03-11T05:34:01.884Z,8.70
2019-03-11T05:34:35.337Z,10.05
2019-03-11T05:35:08.901Z,12.55
2019-03-11T05:35:42.917Z,9.75
2019-03-11T05:36:16.381Z,14.65
2019-03-11T05:36:49.797Z,8.50
2019-03-11T05:37:23.262Z,12.10
2019-03-11T05:37:56.664Z,9.55
2019-03-11T05:38:30.139Z,9.15
2019-03-11T05:39:04.545Z,13.08
2019-03-11T05:39:37.993Z,9.65
2019-03-11T05:40:11.740Z,14.80
2019-03-11T05:40:45.272Z,12.68
2019-03-11T05:41:18.661Z,9.23
2019-03-11T05:41:52.197Z,18.67
2019-03-11T05:42:25.662Z,12.50
2019-03-11T05:42:59.564Z,8.48
2019-03-11T05:43:32.962Z,6.60
2019-03-11T05:44:06.424Z,12.98
2019-03-11T05:44:39.964Z,10.00
2019-03-11T05:45:13.652Z,11.73
2019-03-11T05:45:47.137Z,9.50
2019-03-11T05:46:20.599Z,11.35
2019-03-11T05:46:54.076Z,12.55
2019-03-11T05:47:27.564Z,14.38
2019-03-11T05:48:01.065Z,19.92
2019-03-11T05:48:34.558Z,11.40
2019-03-11T05:49:08.008Z,12.40
2019-03-11T05:49:41.854Z,14.85
2019-03-11T05:50:15.729Z,9.98
2019-03-11T05:50:49.257Z,12.28
2019-03-11T05:51:31.053Z,16.45
2019-03-11T05:51:57.925Z,10.15
2019-03-11T05:52:31.378Z,10.72
2019-03-11T05:53:04.946Z,11.85
2019-03-11T05:53:38.434Z,17.40
2019-03-11T05:54:11.914Z,10.58
2019-03-11T05:54:45.324Z,13.80
2019-03-11T05:55:18.813Z,13.05
2019-03-11T05:55:52.320Z,11.12
2019-03-11T05:56:26.094Z,12.82
2019-03-11T05:56:59.564Z,14.93
2019-03-11T05:57:33.065Z,9.28
2019-03-11T05:58:06.557Z,14.43
2019-03-11T05:58:40.865Z,13.95
2019-03-11T05:59:14.251Z,13.78
2019-03-11T05:59:47.741Z,10.93
2019-03-11T06:00:24.019Z,13.90
2019-03-11T06:00:57.491Z,10.78
2019-03-11T06:01:30.953Z,11.05
2019-03-11T06:02:04.412Z,12.20
2019-03-11T06:02:37.901Z,11.28
2019-03-11T06:03:11.572Z,11.35
2019-03-11T06:03:44.973Z,14.98
2019-03-11T06:04:18.445Z,15.18
2019-03-11T06:04:51.909Z,12.93
2019-03-11T06:05:25.380Z,14.20
2019-03-11T06:05:58.885Z,10.50
2019-03-11T06:06:32.362Z,11.85
2019-03-11T06:07:05.853Z,12.10
2019-03-11T06:07:39.377Z,10.93
2019-03-11T06:08:18.925Z,15.25
2019-03-11T06:08:52.329Z,8.75
2019-03-11T06:09:25.728Z,9.93
2019-03-11T06:09:59.150Z,10.38
2019-03-11T06:10:32.625Z,15.00
2019-03-11T06:11:06.137Z,10.98
2019-03-11T06:11:39.672Z,12.80
2019-03-11T06:12:13.146Z,19.57
2019-03-11T06:12:46.646Z,10.18
2019-03-11T06:13:20.141Z,11.78
2019-03-11T06:13:53.540Z,11.20
2019-03-11T06:14:27.082Z,9.68
2019-03-11T06:15:00.458Z,14.60
2019-03-11T06:15:33.985Z,13.32
2019-03-11T06:16:07.486Z,9.25
2019-03-11T06:16:40.885Z,15.23
2019-03-11T06:17:14.350Z,11.73
2019-03-11T06:17:47.868Z,9.38
2019-03-11T06:18:53.685Z,11.20
2019-03-11T06:19:27.081Z,11.85
2019-03-11T06:20:25.415Z,15.72
2019-03-11T06:21:17.621Z,16.60
2019-03-11T06:22:05.149Z,12.78
2019-03-11T06:22:38.549Z,13.53
2019-03-11T06:23:12.498Z,12.03
2019-03-11T06:23:46.014Z,13.10
2019-03-11T06:24:19.404Z,9.80
2019-03-11T06:24:52.979Z,12.18
2019-03-11T06:25:26.450Z,11.55
2019-03-11T06:25:59.999Z,11.60
2019-03-11T06:26:33.486Z,19.57
2019-03-11T06:27:06.962Z,10.82
2019-03-11T06:27:40.439Z,14.05
2019-03-11T06:28:14.033Z,11.85
2019-03-11T06:28:47.686Z,9.18
2019-03-11T06:29:29.902Z,9.50
2019-03-11T06:29:56.370Z,13.95
2019-03-11T06:30:29.844Z,16.50
2019-03-11T06:31:03.318Z,12.80
2019-03-11T06:31:36.780Z,14.28
2019-03-11T06:32:10.261Z,9.18
2019-03-11T06:32:43.757Z,9.25
2019-03-11T06:33:17.147Z,13.98
2019-03-11T06:33:50.557Z,15.28
2019-03-11T06:34:24.041Z,8.50
2019-03-11T06:34:57.542Z,11.75
2019-03-11T06:35:31.002Z,7.50
2019-03-11T06:36:04.472Z,8.68
2019-03-11T06:36:37.941Z,10.80
2019-03-11T06:37:11.431Z,14.20
2019-03-11T06:37:44.945Z,10.23
2019-03-11T06:38:18.346Z,15.05
2019-03-11T06:38:51.829Z,14.28
2019-03-11T06:39:25.280Z,8.88
2019-03-11T06:39:58.799Z,12.37
2019-03-11T06:40:32.434Z,9.43
2019-03-11T06:41:05.913Z,11.40
2019-03-11T06:41:39.319Z,15.50
2019-03-11T06:42:12.857Z,12.25
2019-03-11T06:42:46.316Z,9.23
2019-03-11T06:43:19.813Z,17.90
2019-03-11T06:43:53.355Z,11.80
2019-03-11T06:44:26.942Z,9.18
2019-03-11T06:45:00.373Z,13.68
2019-03-11T06:45:34.079Z,11.95
2019-03-11T06:46:07.665Z,9.68
2019-03-11T06:47:00.257Z,12.95
2019-03-11T06:47:33.757Z,10.32
2019-03-11T06:48:08.290Z,13.75
2019-03-11T06:48:41.869Z,11.65
2019-03-11T06:49:15.389Z,12.10
2019-03-11T06:49:48.997Z,10.15
2019-03-11T06:50:22.459Z,10.53
2019-03-11T06:50:55.922Z,7.55
2019-03-11T06:51:29.345Z,12.80
2019-03-11T06:52:03.670Z,12.60
2019-03-11T06:52:37.386Z,9.90
2019-03-11T06:53:10.863Z,12.13
2019-03-11T06:53:44.341Z,14.23
2019-03-11T06:54:17.783Z,12.98
2019-03-11T06:54:51.253Z,11.43
2019-03-11T06:55:24.736Z,11.12
2019-03-11T06:55:58.350Z,8.90
2019-03-11T06:56:31.813Z,13.28
2019-03-11T06:57:05.260Z,10.88
2019-03-11T06:57:38.739Z,16.80
2019-03-11T06:58:12.216Z,16.10
2019-03-11T06:58:45.674Z,12.43
2019-03-11T06:59:19.079Z,9.83
2019-03-11T06:59:53.356Z,10.70
2019-03-11T07:00:26.853Z,10.85
2019-03-11T07:01:00.274Z,10.13
2019-03-11T07:01:33.733Z,9.40
2019-03-11T07:02:07.195Z,9.35
2019-03-11T07:02:40.653Z,6.78
2019-03-11T07:03:14.080Z,9.90
2019-03-11T07:03:47.465Z,11.93
2019-03-11T07:04:20.926Z,12.05
2019-03-11T07:04:54.419Z,11.78
2019-03-11T07:05:27.953Z,12.07
2019-03-11T07:06:01.488Z,11.65
2019-03-11T07:06:34.885Z,9.70
2019-03-11T07:07:08.336Z,8.58
2019-03-11T07:07:41.730Z,11.10
2019-03-11T07:08:15.208Z,9.20
2019-03-11T07:08:48.602Z,12.43
2019-03-11T07:09:22.103Z,10.85
2019-03-11T07:09:55.825Z,8.38
2019-03-11T07:10:29.289Z,11.95
2019-03-11T07:11:02.809Z,12.98
2019-03-11T07:11:36.267Z,8.18
2019-03-11T07:12:09.720Z,9.85
2019-03-11T07:12:43.195Z,20.55
2019-03-11T07:13:16.651Z,14.45
2019-03-11T07:13:50.111Z,10.60
2019-03-11T07:14:23.654Z,14.20
2019-03-11T07:14:57.562Z,11.25
2019-03-11T07:15:31.046Z,9.78
2019-03-11T07:16:04.628Z,10.93
2019-03-11T07:16:38.089Z,9.30
2019-03-11T07:17:11.574Z,13.35
2019-03-11T07:17:45.297Z,10.58
2019-03-11T07:18:18.691Z,13.90
2019-03-11T07:18:52.073Z,15.40
2019-03-11T07:19:25.544Z,11.75
2019-03-11T07:19:59.025Z,20.88
2019-03-11T07:20:32.496Z,19.25
2019-03-11T07:21:05.989Z,11.95